createdAt,value
2018-08-19T00:00:47.460Z,3.60
2018-08-19T00:03:15.129Z,4.22
2018-08-19T00:05:43.398Z,2.80
2018-08-19T00:08:11.037Z,3.95
2018-08-19T00:10:52.988Z,3.25
2018-08-19T00:13:20.574Z,4.53
2018-08-19T00:15:49.820Z,4.20
2018-08-19T00:18:17.448Z,3.22
2018-08-19T00:20:45.112Z,3.42
2018-08-19T00:23:12.698Z,3.20
2018-08-19T00:25:41.537Z,2.65
2018-08-19T00:28:11.325Z,3.17
2018-08-19T00:30:38.942Z,3.12
2018-08-19T00:33:06.557Z,3.08
2018-08-19T00:35:34.222Z,2.67
2018-08-19T00:38:02.014Z,2.72
2018-08-19T00:40:29.796Z,2.80
2018-08-19T00:42:57.786Z,2.98
2018-08-19T00:45:25.767Z,2.92
2018-08-19T00:47:53.413Z,2.70
2018-08-19T00:50:21.577Z,3.02
2018-08-19T00:52:49.359Z,2.80
2018-08-19T00:55:17.037Z,3.35
2018-08-19T00:57:50.358Z,4.00
2018-08-19T01:00:17.970Z,2.90
2018-08-19T01:02:45.595Z,3.47
2018-08-19T01:05:13.234Z,2.92
2018-08-19T01:07:41.396Z,2.85
2018-08-19T01:10:09.175Z,2.80
2018-08-19T01:12:36.801Z,2.95
2018-08-19T01:15:08.269Z,2.52
2018-08-19T01:17:39.849Z,2.75
2018-08-19T01:20:08.915Z,2.98
2018-08-19T01:22:40.162Z,2.85
2018-08-19T01:25:11.080Z,2.70
2018-08-19T01:27:39.311Z,2.40
2018-08-19T01:30:13.479Z,2.72
2018-08-19T01:32:41.137Z,2.80
2018-08-19T01:35:09.304Z,2.20
2018-08-19T01:37:37.742Z,2.98
2018-08-19T01:40:11.597Z,2.87
2018-08-19T01:42:39.173Z,3.62
2018-08-19T01:45:07.512Z,2.87
2018-08-19T01:47:35.101Z,2.83
2018-08-19T01:50:02.879Z,2.58
2018-08-19T01:52:30.558Z,2.70
2018-08-19T01:54:58.157Z,2.70
2018-08-19T01:57:31.038Z,2.52
2018-08-19T01:59:59.469Z,2.95
2018-08-19T02:02:27.718Z,5.17
2018-08-19T02:04:55.819Z,4.55
2018-08-19T02:07:23.822Z,3.50
2018-08-19T02:09:59.502Z,5.12
2018-08-19T02:12:35.633Z,3.67
2018-08-19T02:15:04.535Z,4.30
2018-08-19T02:17:32.621Z,3.85
2018-08-19T02:20:00.231Z,4.03
2018-08-19T02:22:27.809Z,4.08
2018-08-19T02:24:55.420Z,3.10
2018-08-19T02:27:23.218Z,3.65
2018-08-19T02:29:50.824Z,4.05
2018-08-19T02:32:18.482Z,3.60
2018-08-19T02:34:46.210Z,3.22
2018-08-19T02:37:15.823Z,3.37
2018-08-19T02:39:45.652Z,4.53
2018-08-19T02:42:32.418Z,2.75
2018-08-19T02:45:03.486Z,3.25
2018-08-19T02:47:31.781Z,3.35
2018-08-19T02:49:59.382Z,3.37
2018-08-19T02:52:30.055Z,2.90
2018-08-19T02:54:59.957Z,5.00
2018-08-19T02:57:28.466Z,3.17
2018-08-19T02:59:56.662Z,3.62
2018-08-19T03:02:26.178Z,3.85
2018-08-19T03:04:54.749Z,3.58
2018-08-19T03:07:25.487Z,3.33
2018-08-19T03:09:58.855Z,3.70
2018-08-19T03:12:26.558Z,3.33
2018-08-19T03:14:54.963Z,4.37
2018-08-19T03:17:23.135Z,4.10
2018-08-19T03:19:52.011Z,3.65
2018-08-19T03:22:19.641Z,3.70
2018-08-19T03:24:47.213Z,3.40
2018-08-19T03:27:14.773Z,4.10
2018-08-19T03:29:48.104Z,4.20
2018-08-19T03:32:15.661Z,4.55
2018-08-19T03:34:43.247Z,4.00
2018-08-19T03:37:13.625Z,3.67
2018-08-19T03:39:41.452Z,4.72
2018-08-19T03:42:09.382Z,3.90
2018-08-19T03:44:37.014Z,3.65
2018-08-19T03:47:09.461Z,4.17
2018-08-19T03:49:37.043Z,3.22
2018-08-19T03:52:04.653Z,4.25
2018-08-19T03:54:32.264Z,3.30
2018-08-19T03:56:59.930Z,4.00
2018-08-19T03:59:27.568Z,4.10
2018-08-19T04:01:55.202Z,4.15
2018-08-19T04:04:22.849Z,3.42
2018-08-19T04:06:50.438Z,4.42
2018-08-19T04:09:18.010Z,4.33
2018-08-19T04:11:55.896Z,3.60
2018-08-19T04:14:28.122Z,4.40
2018-08-19T04:16:57.753Z,3.83
2018-08-19T04:19:25.988Z,4.65
2018-08-19T04:22:02.554Z,4.62
2018-08-19T04:24:31.549Z,4.20
2018-08-19T04:27:04.279Z,4.90
2018-08-19T04:29:33.234Z,4.17
2018-08-19T04:32:01.269Z,4.37
2018-08-19T04:34:29.022Z,4.33
2018-08-19T04:36:57.267Z,3.50
2018-08-19T04:39:24.890Z,2.98
2018-08-19T04:41:52.499Z,3.37
2018-08-19T04:44:20.115Z,3.30
2018-08-19T04:46:48.445Z,3.90
2018-08-19T04:49:16.057Z,3.42
2018-08-19T04:51:43.661Z,3.70
2018-08-19T04:54:11.298Z,4.45
2018-08-19T04:56:38.893Z,4.37
2018-08-19T04:59:06.581Z,5.20
2018-08-19T05:01:34.217Z,5.20
2018-08-19T05:04:01.847Z,4.12
2018-08-19T05:06:29.511Z,3.72
2018-08-19T05:08:57.913Z,4.30
2018-08-19T05:11:25.534Z,3.75
2018-08-19T05:13:53.125Z,3.35
2018-08-19T05:16:20.698Z,4.47
2018-08-19T05:18:54.154Z,4.83
2018-08-19T05:21:24.650Z,4.90
2018-08-19T05:23:52.259Z,4.75
2018-08-19T05:26:19.841Z,4.30
2018-08-19T05:29:04.353Z,4.80
2018-08-19T05:31:32.796Z,5.00
2018-08-19T05:34:01.363Z,4.08
2018-08-19T05:36:33.572Z,4.03
2018-08-19T05:39:02.358Z,5.53
2018-08-19T05:41:29.943Z,4.55
2018-08-19T05:43:57.589Z,5.85
2018-08-19T05:46:25.767Z,4.17
2018-08-19T05:48:58.298Z,4.65
2018-08-19T05:51:25.921Z,5.25
2018-08-19T05:53:53.655Z,5.87
2018-08-19T05:56:21.286Z,4.50
2018-08-19T05:58:49.478Z,4.95
2018-08-19T06:01:22.905Z,5.45
2018-08-19T06:03:51.207Z,5.40
2018-08-19T06:06:18.859Z,5.60
2018-08-19T06:08:46.465Z,5.45
2018-08-19T06:11:14.093Z,5.47
2018-08-19T06:13:41.744Z,5.62
2018-08-19T06:16:09.372Z,6.03
2018-08-19T06:18:36.970Z,5.97
2018-08-19T06:21:05.132Z,5.58
2018-08-19T06:23:32.883Z,5.87
2018-08-19T06:26:00.531Z,5.70
2018-08-19T06:28:28.194Z,6.05
2018-08-19T06:30:55.914Z,6.60
2018-08-19T06:33:23.536Z,6.43
2018-08-19T06:35:51.207Z,6.77
2018-08-19T06:38:19.837Z,5.60
2018-08-19T06:40:47.536Z,6.03
2018-08-19T06:43:15.184Z,6.40
2018-08-19T06:45:42.808Z,5.93
2018-08-19T06:48:10.764Z,5.87
2018-08-19T06:50:38.468Z,6.33
2018-08-19T06:53:06.229Z,5.47
2018-08-19T06:55:33.871Z,5.27
2018-08-19T06:58:01.614Z,5.70
2018-08-19T07:00:30.338Z,6.10
2018-08-19T07:02:59.186Z,5.57
2018-08-19T07:05:26.836Z,5.70
2018-08-19T07:07:54.581Z,5.47
2018-08-19T07:10:29.749Z,5.63
2018-08-19T07:13:02.046Z,5.60
2018-08-19T07:15:30.933Z,5.30
2018-08-19T07:17:58.659Z,6.28
2018-08-19T07:20:27.273Z,5.83
2018-08-19T07:22:54.874Z,5.47
2018-08-19T07:25:22.520Z,5.70
2018-08-19T07:27:50.226Z,5.60
2018-08-19T07:30:17.936Z,5.80
2018-08-19T07:32:45.650Z,5.42
2018-08-19T07:35:13.307Z,4.63
2018-08-19T07:37:40.973Z,4.70
2018-08-19T07:40:09.305Z,5.35
2018-08-19T07:42:37.165Z,4.60
2018-08-19T07:45:05.066Z,5.00
2018-08-19T07:47:32.752Z,5.60
2018-08-19T07:50:01.524Z,5.22
2018-08-19T07:52:29.412Z,5.77
2018-08-19T07:54:57.054Z,4.75
2018-08-19T07:57:27.214Z,5.50
2018-08-19T07:59:55.708Z,5.30
2018-08-19T08:02:27.632Z,5.25
2018-08-19T08:04:55.405Z,5.53
2018-08-19T08:07:23.080Z,5.47
2018-08-19T08:09:50.787Z,5.15
2018-08-19T08:12:18.763Z,4.87
2018-08-19T08:14:52.359Z,5.10
2018-08-19T08:17:20.883Z,4.67
2018-08-19T08:19:54.261Z,4.28
2018-08-19T08:22:21.947Z,4.85
2018-08-19T08:24:49.723Z,4.55
2018-08-19T08:27:17.406Z,5.00
2018-08-19T08:29:45.036Z,5.10
2018-08-19T08:32:12.731Z,5.35
2018-08-19T08:34:40.410Z,5.40
2018-08-19T08:37:08.360Z,5.40
2018-08-19T08:39:36.809Z,5.60
2018-08-19T08:42:05.675Z,5.60
2018-08-19T08:44:33.390Z,5.42
2018-08-19T08:47:03.586Z,6.15
2018-08-19T08:49:36.937Z,5.35
2018-08-19T08:52:12.237Z,5.55
2018-08-19T08:54:44.952Z,6.25
2018-08-19T08:57:12.655Z,4.65
2018-08-19T08:59:40.309Z,6.33
2018-08-19T09:02:08.642Z,5.37
2018-08-19T09:04:36.658Z,4.67
2018-08-19T09:07:04.287Z,5.72
2018-08-19T09:09:31.925Z,6.08
2018-08-19T09:11:59.567Z,4.90
2018-08-19T09:14:27.225Z,5.28
2018-08-19T09:16:54.966Z,5.08
2018-08-19T09:19:22.624Z,5.67
2018-08-19T09:21:50.205Z,5.67
2018-08-19T09:24:17.826Z,5.35
2018-08-19T09:26:45.432Z,6.50
2018-08-19T09:29:13.690Z,5.30
2018-08-19T09:31:41.379Z,4.72
2018-08-19T09:34:09.072Z,5.58
2018-08-19T09:36:36.691Z,4.87
2018-08-19T09:39:08.260Z,5.90
2018-08-19T09:41:35.834Z,5.55
2018-08-19T09:44:03.583Z,5.83
2018-08-19T09:46:31.224Z,5.28
2018-08-19T09:48:58.850Z,4.95
2018-08-19T09:51:26.471Z,6.30
2018-08-19T09:53:54.074Z,6.40
2018-08-19T09:56:22.830Z,5.62
2018-08-19T09:59:05.775Z,6.17
2018-08-19T10:01:39.429Z,6.33
2018-08-19T10:04:13.419Z,6.25
2018-08-19T10:06:41.445Z,5.40
2018-08-19T10:09:09.131Z,5.33
2018-08-19T10:11:37.299Z,6.05
2018-08-19T10:14:04.942Z,5.78
2018-08-19T10:16:41.896Z,5.55
2018-08-19T10:19:09.910Z,4.72
2018-08-19T10:21:38.084Z,5.40
2018-08-19T10:24:18.125Z,5.17
2018-08-19T10:26:46.137Z,4.90
2018-08-19T10:29:13.862Z,5.00
2018-08-19T10:31:41.729Z,5.50
2018-08-19T10:34:09.898Z,4.75
2018-08-19T10:36:37.560Z,4.25
2018-08-19T10:39:11.098Z,4.50
2018-08-19T10:41:38.814Z,4.53
2018-08-19T10:44:06.598Z,4.15
2018-08-19T10:46:34.858Z,4.42
2018-08-19T10:49:02.539Z,4.67
2018-08-19T10:51:30.332Z,5.03
2018-08-19T10:53:58.035Z,4.22
2018-08-19T10:56:25.874Z,4.67
2018-08-19T10:58:58.254Z,4.42
2018-08-19T11:01:26.190Z,4.92
2018-08-19T11:03:54.009Z,5.15
2018-08-19T11:06:21.689Z,4.03
2018-08-19T11:08:57.960Z,4.50
2018-08-19T11:11:30.379Z,4.33
2018-08-19T11:13:57.994Z,4.22
2018-08-19T11:16:25.654Z,3.85
2018-08-19T11:18:53.492Z,3.40
2018-08-19T11:21:28.348Z,4.37
2018-08-19T11:23:56.883Z,4.10
2018-08-19T11:26:24.633Z,3.75
2018-08-19T11:28:54.285Z,4.28
2018-08-19T11:31:27.661Z,3.90
2018-08-19T11:33:59.051Z,3.90
2018-08-19T11:36:33.832Z,3.90
2018-08-19T11:39:01.705Z,3.45
2018-08-19T11:41:30.177Z,4.20
2018-08-19T11:43:58.370Z,4.30
2018-08-19T11:46:26.017Z,3.92
2018-08-19T11:48:59.289Z,3.55
2018-08-19T11:51:43.206Z,3.80
2018-08-19T11:54:12.598Z,3.45
2018-08-19T11:56:40.198Z,4.30
2018-08-19T11:59:08.097Z,4.00
2018-08-19T12:01:35.782Z,3.50
2018-08-19T12:04:09.239Z,3.83
2018-08-19T12:06:36.822Z,3.60
2018-08-19T12:09:08.533Z,3.65
2018-08-19T12:11:37.434Z,3.58
2018-08-19T12:14:07.728Z,3.85
2018-08-19T12:17:40.503Z,3.77
2018-08-19T12:20:08.141Z,3.42
2018-08-19T12:22:35.787Z,3.80
2018-08-19T12:25:03.732Z,3.75
2018-08-19T12:27:31.945Z,3.72
2018-08-19T12:30:32.302Z,3.62
2018-08-19T12:33:17.050Z,3.25
2018-08-19T12:35:44.645Z,3.50
2018-08-19T12:38:12.278Z,4.08
2018-08-19T12:40:44.561Z,3.72
2018-08-19T12:43:12.191Z,3.20
2018-08-19T12:45:39.737Z,3.83
2018-08-19T12:48:08.078Z,4.28
2018-08-19T13:09:27.951Z,5.62
2018-08-19T13:12:03.706Z,5.42
2018-08-19T13:14:31.721Z,5.08
2018-08-19T13:17:00.455Z,5.08
2018-08-19T13:19:28.808Z,4.95
2018-08-19T13:21:56.518Z,5.20
2018-08-19T13:24:28.729Z,4.72
2018-08-19T13:26:57.190Z,4.97
2018-08-19T13:29:24.825Z,4.70
2018-08-19T13:31:52.490Z,4.53
2018-08-19T13:34:20.154Z,4.70
2018-08-19T13:36:47.863Z,4.85
2018-08-19T13:39:15.495Z,4.85
2018-08-19T13:41:43.146Z,5.10
2018-08-19T13:44:10.762Z,4.78
2018-08-19T13:46:38.357Z,4.83
2018-08-19T13:49:06.073Z,4.80
2018-08-19T13:51:33.845Z,6.00
2018-08-19T13:54:01.466Z,5.58
2018-08-19T13:56:29.094Z,5.47
2018-08-19T13:58:56.691Z,4.80
2018-08-19T14:01:24.365Z,4.75
2018-08-19T14:03:51.982Z,4.33
2018-08-19T14:06:19.594Z,4.78
2018-08-19T14:08:47.669Z,4.62
2018-08-19T14:11:15.285Z,4.60
2018-08-19T14:13:43.107Z,4.60
2018-08-19T14:16:10.701Z,4.80
2018-08-19T14:18:38.543Z,4.70
2018-08-19T14:21:06.222Z,5.08
2018-08-19T14:23:33.852Z,4.00
2018-08-19T14:26:04.131Z,4.70
2018-08-19T14:28:31.760Z,4.55
2018-08-19T14:30:59.365Z,4.33
2018-08-19T14:33:26.986Z,4.47
2018-08-19T14:35:54.571Z,4.53
2018-08-19T14:38:22.189Z,4.67
2018-08-19T14:40:49.857Z,4.15
2018-08-19T14:43:17.460Z,4.30
2018-08-19T14:45:45.087Z,4.78
2018-08-19T14:48:12.722Z,4.42
2018-08-19T14:50:42.269Z,4.72
2018-08-19T14:53:09.931Z,4.83
2018-08-19T14:55:37.529Z,4.78
2018-08-19T14:58:05.173Z,4.80
2018-08-19T15:00:33.590Z,4.70
2018-08-19T15:03:01.243Z,4.60
2018-08-19T15:05:28.877Z,4.80
2018-08-19T15:08:05.534Z,4.42
2018-08-19T15:10:34.285Z,4.58
2018-08-19T15:13:02.306Z,4.47
2018-08-19T15:15:29.935Z,4.60
2018-08-19T15:17:59.930Z,4.75
2018-08-19T15:20:33.000Z,5.08
2018-08-19T15:23:14.266Z,4.92
2018-08-19T15:25:41.893Z,4.72
2018-08-19T15:28:09.558Z,5.33
2018-08-19T15:30:39.482Z,7.97
2018-08-19T15:33:07.892Z,6.35
2018-08-19T15:35:35.357Z,5.35
2018-08-19T15:38:02.970Z,5.08
2018-08-19T15:40:46.283Z,5.47
2018-08-19T15:43:14.035Z,6.33
2018-08-19T15:45:42.302Z,5.50
2018-08-19T15:48:09.951Z,6.47
2018-08-19T15:50:37.592Z,6.80
2018-08-19T15:53:07.035Z,5.35
2018-08-19T15:55:35.004Z,5.58
2018-08-19T15:58:03.415Z,5.70
2018-08-19T16:00:34.272Z,5.58
2018-08-19T16:03:07.164Z,4.92
2018-08-19T16:05:34.871Z,5.22
2018-08-19T16:08:03.957Z,5.08
2018-08-19T16:10:32.539Z,5.60
2018-08-19T16:13:05.306Z,5.42
2018-08-19T16:15:32.878Z,4.80
2018-08-19T16:18:00.534Z,4.97
2018-08-19T16:20:28.180Z,5.05
2018-08-19T16:22:55.793Z,4.83
2018-08-19T16:25:23.427Z,5.45
2018-08-19T16:27:51.358Z,5.10
2018-08-19T16:30:19.439Z,5.20
2018-08-19T16:32:48.553Z,6.22
2018-08-19T16:35:16.218Z,5.50
2018-08-19T16:37:43.821Z,5.15
2018-08-19T16:40:12.483Z,5.65
2018-08-19T16:42:40.861Z,5.53
2018-08-19T16:45:10.371Z,5.58
2018-08-19T16:47:37.994Z,5.42
2018-08-19T16:50:09.418Z,5.85
2018-08-19T16:52:37.138Z,5.80
2018-08-19T16:55:05.603Z,5.60
2018-08-19T16:57:33.255Z,7.00
2018-08-19T17:00:02.430Z,8.68
2018-08-19T17:02:30.984Z,6.87
2018-08-19T17:05:00.532Z,6.55
2018-08-19T17:07:28.215Z,6.65
2018-08-19T17:09:55.879Z,7.28
2018-08-19T17:12:25.250Z,6.97
2018-08-19T17:14:54.736Z,7.60
2018-08-19T17:17:22.364Z,7.85
2018-08-19T17:19:50.030Z,8.20
2018-08-19T17:22:17.669Z,8.60
2018-08-19T17:24:45.274Z,8.95
2018-08-19T17:27:12.897Z,9.20
2018-08-19T17:29:41.537Z,9.65
2018-08-19T17:32:09.155Z,8.93
2018-08-19T17:34:39.115Z,9.23
2018-08-19T17:37:07.823Z,9.53
2018-08-19T17:39:35.546Z,9.03
2018-08-19T17:42:03.148Z,9.10
2018-08-19T17:44:30.753Z,9.08
2018-08-19T17:46:58.382Z,9.33
2018-08-19T17:49:27.022Z,9.23
2018-08-19T17:51:56.627Z,8.75
2018-08-19T17:54:25.956Z,9.35
2018-08-19T17:56:54.702Z,9.50
2018-08-19T17:59:22.590Z,9.40
2018-08-19T18:01:50.187Z,8.70
2018-08-19T18:04:17.822Z,8.70
2018-08-19T18:06:45.462Z,9.15
2018-08-19T18:09:14.066Z,8.53
2018-08-19T18:11:43.215Z,8.58
2018-08-19T18:14:10.847Z,8.88
2018-08-19T18:16:38.469Z,8.20
2018-08-19T18:19:06.177Z,9.10
2018-08-19T18:21:36.149Z,8.03
2018-08-19T18:24:04.643Z,7.90
2018-08-19T18:26:33.119Z,8.45
2018-08-19T18:29:00.788Z,8.00
2018-08-19T18:31:28.434Z,7.80
2018-08-19T18:33:57.866Z,8.13
2018-08-19T18:36:26.798Z,8.28
2018-08-19T18:38:54.728Z,8.18
2018-08-19T18:41:28.341Z,7.70
2018-08-19T18:43:57.271Z,7.33
2018-08-19T18:46:25.271Z,7.08
2018-08-19T18:49:00.042Z,7.37
2018-08-19T18:51:29.202Z,7.00
2018-08-19T18:53:58.097Z,6.58
2018-08-19T18:56:26.940Z,6.00
2018-08-19T18:58:54.657Z,6.30
2018-08-19T19:01:22.334Z,6.20
2018-08-19T19:03:51.049Z,6.47
2018-08-19T19:06:18.793Z,5.72
2018-08-19T19:08:46.431Z,6.12
2018-08-19T19:11:14.809Z,6.33
2018-08-19T19:13:42.448Z,6.40
2018-08-19T19:16:10.130Z,6.60
2018-08-19T19:18:37.705Z,6.42
2018-08-19T19:21:05.897Z,12.85
2018-08-19T19:23:35.606Z,10.35
2018-08-19T19:27:33.009Z,9.58
2018-08-19T19:30:03.997Z,7.83
2018-08-19T19:32:31.739Z,8.23
2018-08-19T19:35:05.137Z,7.67
2018-08-19T19:37:33.765Z,8.23
2018-08-19T19:40:06.033Z,7.75
2018-08-19T19:42:33.842Z,7.53
2018-08-19T19:45:02.018Z,8.00
2018-08-19T19:47:29.653Z,7.83
2018-08-19T19:49:58.309Z,7.78
2018-08-19T19:52:26.181Z,8.03
2018-08-19T19:54:53.992Z,7.58
2018-08-19T19:57:21.655Z,7.58
2018-08-19T19:59:49.315Z,7.10
2018-08-19T20:02:22.331Z,7.45
2018-08-19T20:04:50.147Z,7.05
2018-08-19T20:07:18.421Z,7.40
2018-08-19T20:09:46.090Z,7.35
2018-08-19T20:12:19.328Z,7.30
2018-08-19T20:14:49.308Z,6.90
2018-08-19T20:17:18.060Z,6.87
2018-08-19T20:19:45.689Z,6.97
2018-08-19T20:22:16.659Z,6.53
2018-08-19T20:24:44.475Z,6.70
2018-08-19T20:27:12.079Z,6.85
2018-08-19T20:29:39.771Z,6.75
2018-08-19T20:32:08.518Z,6.62
2018-08-19T20:34:36.150Z,6.35
2018-08-19T20:37:03.802Z,7.05
2018-08-19T20:39:31.456Z,6.67
2018-08-19T20:41:59.478Z,7.08
2018-08-19T20:44:27.107Z,6.95
2018-08-19T20:46:57.369Z,7.40
2018-08-19T20:49:26.454Z,7.33
2018-08-19T20:51:54.987Z,6.78
2018-08-19T20:54:24.180Z,7.42
2018-08-19T20:56:51.913Z,7.20
2018-08-19T20:59:23.213Z,6.90
2018-08-19T21:01:51.153Z,7.28
2018-08-19T21:04:18.790Z,6.87
2018-08-19T21:06:46.464Z,7.42
2018-08-19T21:09:14.248Z,7.30
2018-08-19T21:11:41.846Z,6.90
2018-08-19T21:14:09.438Z,6.87
2018-08-19T21:16:37.725Z,6.87
2018-08-19T21:19:05.827Z,6.87
2018-08-19T21:21:33.714Z,6.92
2018-08-19T21:24:01.347Z,6.92
2018-08-19T21:26:29.001Z,6.75
2018-08-19T21:29:01.934Z,7.30
2018-08-19T21:31:30.102Z,7.10
2018-08-19T21:33:57.781Z,6.87
2018-08-19T21:36:25.823Z,7.00
2018-08-19T21:38:53.409Z,7.15
2018-08-19T21:41:20.982Z,23.47
2018-08-19T21:43:48.602Z,29.40
2018-08-19T21:46:16.187Z,19.80
2018-08-19T21:48:44.057Z,19.10
2018-08-19T21:51:11.670Z,12.70
2018-08-19T21:53:39.259Z,13.10
2018-08-19T21:56:06.910Z,13.35
2018-08-19T21:58:34.537Z,15.88
2018-08-19T22:01:03.381Z,16.67
2018-08-19T22:03:36.746Z,15.43
2018-08-19T22:06:06.377Z,17.32
2018-08-19T22:08:34.006Z,15.90
2018-08-19T22:11:01.621Z,14.53
2018-08-19T22:13:29.258Z,12.88
2018-08-19T22:15:56.904Z,12.35
2018-08-19T22:18:28.498Z,12.65
2018-08-19T22:21:12.727Z,12.35
2018-08-19T22:23:44.131Z,12.15
2018-08-19T22:26:13.915Z,11.97
2018-08-19T22:28:42.016Z,12.18
2018-08-19T22:31:25.647Z,11.93
2018-08-19T22:33:54.370Z,12.70
2018-08-19T22:36:21.970Z,12.15
2018-08-19T22:38:50.252Z,12.58
2018-08-19T22:41:22.889Z,11.95
2018-08-19T22:43:51.096Z,11.88
2018-08-19T22:46:18.756Z,11.45
2018-08-19T22:48:46.397Z,11.50
2018-08-19T22:51:14.370Z,11.05
2018-08-19T22:53:41.938Z,11.45
2018-08-19T22:56:09.542Z,10.60
2018-08-19T22:58:37.275Z,11.35
2018-08-19T23:01:05.533Z,10.75
2018-08-19T23:03:33.162Z,11.25
2018-08-19T23:06:00.753Z,11.53
2018-08-19T23:08:29.605Z,10.28
2018-08-19T23:10:59.313Z,10.03
2018-08-19T23:13:44.178Z,10.82
2018-08-19T23:18:48.202Z,10.08
2018-08-19T23:21:15.765Z,9.50
2018-08-19T23:23:43.354Z,9.80
2018-08-19T23:26:10.933Z,9.38
2018-08-19T23:28:38.511Z,9.80
2018-08-19T23:31:06.109Z,9.10
2018-08-19T23:33:33.670Z,8.90
2018-08-19T23:36:01.240Z,9.30
2018-08-19T23:38:28.813Z,8.90
2018-08-19T23:40:56.412Z,9.50
2018-08-19T23:43:23.995Z,8.38
2018-08-19T23:45:51.570Z,9.03
2018-08-19T23:48:19.145Z,8.63
2018-08-19T23:50:46.741Z,8.70
2018-08-19T23:53:14.357Z,8.83
2018-08-19T23:55:41.961Z,9.38
2018-08-19T23:58:10.294Z,8.78
